PWSweather.com
Personal Weather Stations
Station Observations
RIORANCHO
Corrales Heights, Rio Rancho, NM 87124

Corrales HeightsRio Rancho, NM 87124

Lat: 35.241928, Lon: -106.647095

Elevation: 5297

Station Type: Davis Vantage Pro 2 Plus

http://www.weatherriorancho.com

High Low Average
Temperature 73.0°F22.8°C 49.9°F9.9°C 61.4°F16.3°C
Dew Point 25.9°F-3.4°C 17.4°F-8.1°C 21.6°F-5.8°C
Winds 9.2 mph 14.8 kmh Calm Calm 1.0 mph SW1.6 kmh SW
Wind Gusts 15.0 mph24.1 kmh -- 2.0 mph3.2 kmh
Humidity 32% 14% 22%
Pressure 30.03 in1016.9 mb 29.91 in1012.9 mb -
Precipitation 0.00 in0.0 mm - -
Hour Temp Dew Point Humidity Winds Wind Gusts Pressure Precip Precip Rate Daily Precip Total
12:00 AM 51.9°F11.1°C 19.8°F-6.8°C 28% Calm Calm -- 30.02 in1016.6 mb - 0.00 in0.0 mm 0.00 in0.0 mm
12:10 AM 51.8°F11.0°C 20.5°F-6.4°C 29% Calm Calm -- 30.02 in1016.6 mb - 0.00 in0.0 mm 0.00 in0.0 mm
12:20 AM 51.6°F10.9°C 20.4°F-6.4°C 29% Calm Calm -- 30.02 in1016.6 mb - 0.00 in0.0 mm 0.00 in0.0 mm
12:30 AM 51.4°F10.8°C 21.0°F-6.1°C 30% Calm Calm -- 30.02 in1016.6 mb - 0.00 in0.0 mm 0.00 in0.0 mm
12:40 AM 51.2°F10.7°C 20.8°F-6.2°C 30% Calm Calm -- 30.02 in1016.6 mb - 0.00 in0.0 mm 0.00 in0.0 mm
12:50 AM 51.1°F10.6°C 20.7°F-6.3°C 30% Calm Calm -- 30.03 in1016.9 mb - 0.00 in0.0 mm 0.00 in0.0 mm
01:00 AM 50.9°F10.5°C 21.3°F-5.9°C 31% Calm Calm -- 30.02 in1016.6 mb - 0.00 in0.0 mm 0.00 in0.0 mm
01:10 AM 50.7°F10.4°C 21.1°F-6.1°C 31% Calm Calm -- 30.02 in1016.6 mb - 0.00 in0.0 mm 0.00 in0.0 mm
01:20 AM 50.6°F10.3°C 21.0°F-6.1°C 31% Calm Calm -- 30.02 in1016.6 mb - 0.00 in0.0 mm 0.00 in0.0 mm
01:30 AM 50.4°F10.2°C 21.6°F-5.8°C 32% Calm Calm -- 30.02 in1016.6 mb - 0.00 in0.0 mm 0.00 in0.0 mm
01:40 AM 50.9°F10.5°C 21.3°F-5.9°C 31% Calm Calm -- 30.02 in1016.6 mb - 0.00 in0.0 mm 0.00 in0.0 mm
01:50 AM 50.7°F10.4°C 21.9°F-5.6°C 32% Calm Calm -- 30.02 in1016.6 mb - 0.00 in0.0 mm 0.00 in0.0 mm
02:00 AM 50.6°F10.3°C 21.8°F-5.7°C 32% Calm Calm -- 30.01 in1016.3 mb - 0.00 in0.0 mm 0.00 in0.0 mm
02:10 AM 51.4°F10.8°C 21.7°F-5.7°C 31% Calm Calm -- 30.01 in1016.3 mb - 0.00 in0.0 mm 0.00 in0.0 mm
02:20 AM 52.4°F11.3°C 21.8°F-5.7°C 30% Calm Calm -- 30.01 in1016.3 mb - 0.00 in0.0 mm 0.00 in0.0 mm
02:30 AM 53.1°F11.7°C 21.6°F-5.8°C 29% Calm Calm -- 30.01 in1016.3 mb - 0.00 in0.0 mm 0.00 in0.0 mm
02:40 AM 53.5°F11.9°C 21.2°F-6.0°C 28% Calm Calm -- 30.00 in1015.9 mb - 0.00 in0.0 mm 0.00 in0.0 mm
02:50 AM 53.3°F11.8°C 21.0°F-6.1°C 28% Calm Calm -- 30.01 in1016.3 mb - 0.00 in0.0 mm 0.00 in0.0 mm
03:00 AM 53.7°F12.1°C 20.5°F-6.4°C 27% Calm Calm -- 30.01 in1016.3 mb - 0.00 in0.0 mm 0.00 in0.0 mm
03:10 AM 53.7°F12.1°C 21.3°F-5.9°C 28% Calm Calm -- 30.00 in1015.9 mb - 0.00 in0.0 mm 0.00 in0.0 mm
03:20 AM 53.3°F11.8°C 21.8°F-5.7°C 29% Calm Calm -- 30.00 in1015.9 mb - 0.00 in0.0 mm 0.00 in0.0 mm
03:30 AM 53.0°F11.7°C 20.7°F-6.3°C 28% Calm Calm -- 30.00 in1015.9 mb - 0.00 in0.0 mm 0.00 in0.0 mm
03:40 AM 53.2°F11.8°C 20.9°F-6.2°C 28% Calm Calm -- 30.00 in1015.9 mb - 0.00 in0.0 mm 0.00 in0.0 mm
03:50 AM 53.5°F11.9°C 20.3°F-6.5°C 27% Calm Calm -- 30.00 in1015.9 mb - 0.00 in0.0 mm 0.00 in0.0 mm
04:00 AM 53.3°F11.8°C 21.0°F-6.1°C 28% Calm Calm -- 30.00 in1015.9 mb - 0.00 in0.0 mm 0.00 in0.0 mm
04:10 AM 53.0°F11.7°C 21.6°F-5.8°C 29% Calm Calm -- 30.00 in1015.9 mb - 0.00 in0.0 mm 0.00 in0.0 mm
04:20 AM 52.6°F11.4°C 21.2°F-6.0°C 29% Calm Calm -- 30.00 in1015.9 mb - 0.00 in0.0 mm 0.00 in0.0 mm
04:30 AM 54.0°F12.2°C 20.7°F-6.3°C 27% Calm Calm -- 30.00 in1015.9 mb - 0.00 in0.0 mm 0.00 in0.0 mm
04:40 AM 54.1°F12.3°C 20.8°F-6.2°C 27% Calm Calm -- 30.01 in1016.3 mb - 0.00 in0.0 mm 0.00 in0.0 mm
04:50 AM 53.9°F12.2°C 20.6°F-6.3°C 27% Calm Calm -- 30.01 in1016.3 mb - 0.00 in0.0 mm 0.00 in0.0 mm
05:00 AM 53.7°F12.1°C 20.5°F-6.4°C 27% Calm Calm -- 30.01 in1016.3 mb - 0.00 in0.0 mm 0.00 in0.0 mm
05:10 AM 53.5°F11.9°C 20.3°F-6.5°C 27% Calm Calm -- 30.01 in1016.3 mb - 0.00 in0.0 mm 0.00 in0.0 mm
05:20 AM 53.1°F11.7°C 20.8°F-6.2°C 28% Calm Calm -- 30.02 in1016.6 mb - 0.00 in0.0 mm 0.00 in0.0 mm
05:30 AM 53.1°F11.7°C 21.6°F-5.8°C 29% Calm Calm -- 30.02 in1016.6 mb - 0.00 in0.0 mm 0.00 in0.0 mm
05:40 AM 53.3°F11.8°C 21.0°F-6.1°C 28% Calm Calm -- 30.01 in1016.3 mb - 0.00 in0.0 mm 0.00 in0.0 mm
05:50 AM 53.7°F12.1°C 21.3°F-5.9°C 28% Calm Calm 1.2 mph1.9 kmh 30.01 in1016.3 mb - 0.00 in0.0 mm 0.00 in0.0 mm
06:00 AM 54.4°F12.4°C 21.1°F-6.1°C 27% Calm Calm 3.5 mph5.6 kmh 30.02 in1016.6 mb - 0.00 in0.0 mm 0.00 in0.0 mm
06:10 AM 54.5°F12.5°C 22.0°F-5.6°C 28% Calm Calm -- 30.02 in1016.6 mb - 0.00 in0.0 mm 0.00 in0.0 mm
06:20 AM 53.8°F12.1°C 21.4°F-5.9°C 28% Calm Calm -- 30.02 in1016.6 mb - 0.00 in0.0 mm 0.00 in0.0 mm
06:30 AM 53.6°F12.0°C 22.1°F-5.5°C 29% Calm Calm 3.5 mph5.6 kmh 30.02 in1016.6 mb - 0.00 in0.0 mm 0.00 in0.0 mm
06:40 AM 53.9°F12.2°C 21.5°F-5.8°C 28% Calm Calm -- 30.02 in1016.6 mb - 0.00 in0.0 mm 0.00 in0.0 mm
06:50 AM 53.9°F12.2°C 23.1°F-4.9°C 30% Calm Calm -- 30.02 in1016.6 mb - 0.00 in0.0 mm 0.00 in0.0 mm
07:00 AM 54.0°F12.2°C 22.4°F-5.3°C 29% Calm Calm 1.2 mph1.9 kmh 30.02 in1016.6 mb - 0.00 in0.0 mm 0.00 in0.0 mm
07:10 AM 54.3°F12.4°C 22.7°F-5.2°C 29% Calm Calm -- 30.02 in1016.6 mb - 0.00 in0.0 mm 0.00 in0.0 mm
07:20 AM 54.8°F12.7°C 22.3°F-5.4°C 28% Calm Calm -- 30.02 in1016.6 mb - 0.00 in0.0 mm 0.00 in0.0 mm
07:30 AM 55.6°F13.1°C 22.1°F-5.5°C 27% Calm Calm -- 30.03 in1016.9 mb - 0.00 in0.0 mm 0.00 in0.0 mm
07:40 AM 56.4°F13.6°C 22.8°F-5.1°C 27% Calm Calm -- 30.02 in1016.6 mb - 0.00 in0.0 mm 0.00 in0.0 mm
07:50 AM 57.2°F14.0°C 22.6°F-5.2°C 26% Calm Calm -- 30.03 in1016.9 mb - 0.00 in0.0 mm 0.00 in0.0 mm
08:00 AM 57.7°F14.3°C 23.0°F-5.0°C 26% Calm Calm -- 30.03 in1016.9 mb - 0.00 in0.0 mm 0.00 in0.0 mm
08:10 AM 58.5°F14.7°C 22.7°F-5.2°C 25% Calm Calm -- 30.03 in1016.9 mb - 0.00 in0.0 mm 0.00 in0.0 mm
08:20 AM 59.6°F15.3°C 22.7°F-5.2°C 24% 2.3 mph SE3.7 kmh SE 4.6 mph7.4 kmh 30.03 in1016.9 mb - 0.00 in0.0 mm 0.00 in0.0 mm
08:30 AM 60.5°F15.8°C 22.5°F-5.3°C 23% 1.2 mph SE1.9 kmh SE 3.5 mph5.6 kmh 30.03 in1016.9 mb - 0.00 in0.0 mm 0.00 in0.0 mm
08:40 AM 61.2°F16.2°C 23.1°F-4.9°C 23% 1.2 mph SSE1.9 kmh SSE 3.5 mph5.6 kmh 30.03 in1016.9 mb - 0.00 in0.0 mm 0.00 in0.0 mm
08:50 AM 61.6°F16.4°C 23.4°F-4.8°C 23% 1.2 mph S1.9 kmh S 3.5 mph5.6 kmh 30.03 in1016.9 mb - 0.00 in0.0 mm 0.00 in0.0 mm
09:00 AM 62.6°F17.0°C 23.2°F-4.9°C 22% 1.2 mph SSE1.9 kmh SSE 3.5 mph5.6 kmh 30.02 in1016.6 mb - 0.00 in0.0 mm 0.00 in0.0 mm
09:10 AM 63.8°F17.7°C 24.1°F-4.4°C 22% 3.5 mph SE5.6 kmh SE 3.5 mph5.6 kmh 30.02 in1016.6 mb - 0.00 in0.0 mm 0.00 in0.0 mm
09:20 AM 64.3°F17.9°C 23.5°F-4.7°C 21% Calm Calm 1.2 mph1.9 kmh 30.02 in1016.6 mb - 0.00 in0.0 mm 0.00 in0.0 mm
09:30 AM 64.9°F18.3°C 24.0°F-4.4°C 21% Calm Calm -- 30.02 in1016.6 mb - 0.00 in0.0 mm 0.00 in0.0 mm
09:40 AM 64.9°F18.3°C 24.0°F-4.4°C 21% Calm Calm 3.5 mph5.6 kmh 30.02 in1016.6 mb - 0.00 in0.0 mm 0.00 in0.0 mm
09:50 AM 65.8°F18.8°C 24.7°F-4.1°C 21% Calm Calm -- 30.02 in1016.6 mb - 0.00 in0.0 mm 0.00 in0.0 mm
10:00 AM 67.2°F19.6°C 24.7°F-4.1°C 20% Calm Calm 2.3 mph3.7 kmh 30.02 in1016.6 mb - 0.00 in0.0 mm 0.00 in0.0 mm
10:10 AM 68.7°F20.4°C 25.9°F-3.4°C 20% Calm Calm -- 30.01 in1016.3 mb - 0.00 in0.0 mm 0.00 in0.0 mm
10:20 AM 69.1°F20.6°C 23.8°F-4.6°C 18% 3.5 mph W5.6 kmh W 10.4 mph16.7 kmh 30.01 in1016.3 mb - 0.00 in0.0 mm 0.00 in0.0 mm
10:30 AM 68.6°F20.3°C 23.4°F-4.8°C 18% 3.5 mph WSW5.6 kmh WSW 8.1 mph13.0 kmh 30.01 in1016.3 mb - 0.00 in0.0 mm 0.00 in0.0 mm
10:40 AM 68.5°F20.3°C 23.2°F-4.9°C 18% 1.2 mph SW1.9 kmh SW 5.8 mph9.3 kmh 30.01 in1016.3 mb - 0.00 in0.0 mm 0.00 in0.0 mm
10:50 AM 69.4°F20.8°C 22.7°F-5.2°C 17% 2.3 mph W3.7 kmh W 4.6 mph7.4 kmh 30.01 in1016.3 mb - 0.00 in0.0 mm 0.00 in0.0 mm
11:00 AM 69.8°F21.0°C 23.0°F-5.0°C 17% 2.3 mph W3.7 kmh W 3.5 mph5.6 kmh 30.01 in1016.3 mb - 0.00 in0.0 mm 0.00 in0.0 mm
11:10 AM 69.9°F21.1°C 23.0°F-5.0°C 17% 5.8 mph SW9.3 kmh SW 8.1 mph13.0 kmh 30.00 in1015.9 mb - 0.00 in0.0 mm 0.00 in0.0 mm
11:20 AM 70.2°F21.2°C 23.3°F-4.8°C 17% 6.9 mph WSW11.1 kmh WSW 11.5 mph18.5 kmh 30.00 in1015.9 mb - 0.00 in0.0 mm 0.00 in0.0 mm
11:30 AM 70.3°F21.3°C 23.4°F-4.8°C 17% 2.3 mph SW3.7 kmh SW 5.8 mph9.3 kmh 29.99 in1015.6 mb - 0.00 in0.0 mm 0.00 in0.0 mm
11:40 AM 71.5°F21.9°C 24.4°F-4.2°C 17% 1.2 mph SW1.9 kmh SW -- 29.99 in1015.6 mb - 0.00 in0.0 mm 0.00 in0.0 mm
11:50 AM 72.1°F22.3°C 24.8°F-4.0°C 17% 2.3 mph WSW3.7 kmh WSW 4.6 mph7.4 kmh 29.99 in1015.6 mb - 0.00 in0.0 mm 0.00 in0.0 mm
12:00 PM 73.0°F22.8°C 24.1°F-4.4°C 16% Calm Calm -- 29.98 in1015.2 mb - 0.00 in0.0 mm 0.00 in0.0 mm
12:10 PM 70.7°F21.5°C 25.1°F-3.8°C 18% 2.3 mph SW3.7 kmh SW 4.6 mph7.4 kmh 29.98 in1015.2 mb - 0.00 in0.0 mm 0.00 in0.0 mm
12:20 PM 71.4°F21.9°C 24.3°F-4.3°C 17% Calm Calm 2.3 mph3.7 kmh 29.98 in1015.2 mb - 0.00 in0.0 mm 0.00 in0.0 mm
12:30 PM 70.4°F21.3°C 23.4°F-4.8°C 17% 1.2 mph S1.9 kmh S 3.5 mph5.6 kmh 29.97 in1014.9 mb - 0.00 in0.0 mm 0.00 in0.0 mm
12:40 PM 69.8°F21.0°C 23.0°F-5.0°C 17% Calm Calm -- 29.98 in1015.2 mb - 0.00 in0.0 mm 0.00 in0.0 mm
12:50 PM 70.6°F21.4°C 23.7°F-4.6°C 17% Calm Calm -- 29.97 in1014.9 mb - 0.00 in0.0 mm 0.00 in0.0 mm
01:00 PM 72.0°F22.2°C 23.3°F-4.8°C 16% 4.6 mph SW7.4 kmh SW 8.1 mph13.0 kmh 29.97 in1014.9 mb - 0.00 in0.0 mm 0.00 in0.0 mm
01:10 PM 71.9°F22.2°C 23.2°F-4.9°C 16% 3.5 mph WNW5.6 kmh WNW 3.5 mph5.6 kmh 29.97 in1014.9 mb - 0.00 in0.0 mm 0.00 in0.0 mm
01:20 PM 72.5°F22.5°C 22.2°F-5.4°C 15% Calm Calm 1.2 mph1.9 kmh 29.97 in1014.9 mb - 0.00 in0.0 mm 0.00 in0.0 mm
01:30 PM 72.6°F22.6°C 22.3°F-5.4°C 15% 2.3 mph W3.7 kmh W 3.5 mph5.6 kmh 29.97 in1014.9 mb - 0.00 in0.0 mm 0.00 in0.0 mm
01:40 PM 72.5°F22.5°C 22.2°F-5.4°C 15% 2.3 mph WNW3.7 kmh WNW 2.3 mph3.7 kmh 29.96 in1014.6 mb - 0.00 in0.0 mm 0.00 in0.0 mm
01:50 PM 72.3°F22.4°C 22.0°F-5.6°C 15% 9.2 mph WSW14.8 kmh WSW 15.0 mph24.1 kmh 29.96 in1014.6 mb - 0.00 in0.0 mm 0.00 in0.0 mm
02:00 PM 72.4°F22.4°C 22.1°F-5.5°C 15% Calm Calm 2.3 mph3.7 kmh 29.95 in1014.2 mb - 0.00 in0.0 mm 0.00 in0.0 mm
02:10 PM 72.2°F22.3°C 23.5°F-4.7°C 16% 1.2 mph WNW1.9 kmh WNW 9.2 mph14.8 kmh 29.95 in1014.2 mb - 0.00 in0.0 mm 0.00 in0.0 mm
02:20 PM 72.5°F22.5°C 22.2°F-5.4°C 15% 2.3 mph W3.7 kmh W 2.3 mph3.7 kmh 29.95 in1014.2 mb - 0.00 in0.0 mm 0.00 in0.0 mm
02:30 PM 71.3°F21.8°C 22.8°F-5.1°C 16% 2.3 mph W3.7 kmh W 5.8 mph9.3 kmh 29.95 in1014.2 mb - 0.00 in0.0 mm 0.00 in0.0 mm
02:40 PM 71.5°F21.9°C 22.9°F-5.1°C 16% Calm Calm 2.3 mph3.7 kmh 29.95 in1014.2 mb - 0.00 in0.0 mm 0.00 in0.0 mm
02:50 PM 71.4°F21.9°C 22.8°F-5.1°C 16% 2.3 mph NW3.7 kmh NW 10.4 mph16.7 kmh 29.94 in1013.9 mb - 0.00 in0.0 mm 0.00 in0.0 mm
03:00 PM 71.3°F21.8°C 22.7°F-5.2°C 16% Calm Calm 2.3 mph3.7 kmh 29.94 in1013.9 mb - 0.00 in0.0 mm 0.00 in0.0 mm
03:10 PM 71.6°F22.0°C 23.0°F-5.0°C 16% Calm Calm -- 29.94 in1013.9 mb - 0.00 in0.0 mm 0.00 in0.0 mm
03:20 PM 71.8°F22.1°C 21.6°F-5.8°C 15% Calm Calm -- 29.93 in1013.5 mb - 0.00 in0.0 mm 0.00 in0.0 mm
03:30 PM 71.6°F22.0°C 21.5°F-5.8°C 15% Calm Calm 8.1 mph13.0 kmh 29.93 in1013.5 mb - 0.00 in0.0 mm 0.00 in0.0 mm
03:40 PM 71.6°F22.0°C 21.5°F-5.8°C 15% 1.2 mph WSW1.9 kmh WSW 1.2 mph1.9 kmh 29.93 in1013.5 mb - 0.00 in0.0 mm 0.00 in0.0 mm
03:50 PM 71.5°F21.9°C 21.4°F-5.9°C 15% 1.2 mph WNW1.9 kmh WNW 5.8 mph9.3 kmh 29.93 in1013.5 mb - 0.00 in0.0 mm 0.00 in0.0 mm
04:00 PM 71.7°F22.1°C 21.5°F-5.8°C 15% Calm Calm 2.3 mph3.7 kmh 29.93 in1013.5 mb - 0.00 in0.0 mm 0.00 in0.0 mm
04:10 PM 70.2°F21.2°C 20.3°F-6.5°C 15% Calm Calm 3.5 mph5.6 kmh 29.92 in1013.2 mb - 0.00 in0.0 mm 0.00 in0.0 mm
04:20 PM 70.4°F21.3°C 22.0°F-5.6°C 16% 1.2 mph WSW1.9 kmh WSW 3.5 mph5.6 kmh 29.92 in1013.2 mb - 0.00 in0.0 mm 0.00 in0.0 mm
04:30 PM 70.7°F21.5°C 22.2°F-5.4°C 16% 1.2 mph WSW1.9 kmh WSW 3.5 mph5.6 kmh 29.91 in1012.9 mb - 0.00 in0.0 mm 0.00 in0.0 mm
04:40 PM 71.5°F21.9°C 22.9°F-5.1°C 16% Calm Calm -- 29.92 in1013.2 mb - 0.00 in0.0 mm 0.00 in0.0 mm
04:50 PM 71.3°F21.8°C 22.8°F-5.1°C 16% 2.3 mph WSW3.7 kmh WSW 3.5 mph5.6 kmh 29.92 in1013.2 mb - 0.00 in0.0 mm 0.00 in0.0 mm
05:00 PM 71.2°F21.8°C 22.7°F-5.2°C 16% 2.3 mph SW3.7 kmh SW 3.5 mph5.6 kmh 29.92 in1013.2 mb - 0.00 in0.0 mm 0.00 in0.0 mm
05:10 PM 70.8°F21.6°C 22.3°F-5.4°C 16% 1.2 mph WSW1.9 kmh WSW 1.2 mph1.9 kmh 29.92 in1013.2 mb - 0.00 in0.0 mm 0.00 in0.0 mm
05:20 PM 70.5°F21.4°C 20.6°F-6.3°C 15% 1.2 mph SW1.9 kmh SW 3.5 mph5.6 kmh 29.92 in1013.2 mb - 0.00 in0.0 mm 0.00 in0.0 mm
05:30 PM 70.1°F21.2°C 20.3°F-6.5°C 15% 1.2 mph SW1.9 kmh SW 3.5 mph5.6 kmh 29.92 in1013.2 mb - 0.00 in0.0 mm 0.00 in0.0 mm
05:40 PM 69.6°F20.9°C 19.9°F-6.7°C 15% Calm Calm 2.3 mph3.7 kmh 29.92 in1013.2 mb - 0.00 in0.0 mm 0.00 in0.0 mm
05:50 PM 69.0°F20.6°C 17.8°F-7.9°C 14% 1.2 mph SW1.9 kmh SW 2.3 mph3.7 kmh 29.92 in1013.2 mb - 0.00 in0.0 mm 0.00 in0.0 mm
06:00 PM 68.7°F20.4°C 17.5°F-8.1°C 14% Calm Calm 3.5 mph5.6 kmh 29.92 in1013.2 mb - 0.00 in0.0 mm 0.00 in0.0 mm
06:10 PM 68.5°F20.3°C 17.4°F-8.1°C 14% Calm Calm 1.2 mph1.9 kmh 29.92 in1013.2 mb - 0.00 in0.0 mm 0.00 in0.0 mm
06:20 PM 68.2°F20.1°C 18.7°F-7.4°C 15% Calm Calm -- 29.91 in1012.9 mb - 0.00 in0.0 mm 0.00 in0.0 mm
06:30 PM 67.9°F19.9°C 18.5°F-7.5°C 15% Calm Calm -- 29.91 in1012.9 mb - 0.00 in0.0 mm 0.00 in0.0 mm
06:40 PM 67.4°F19.7°C 19.6°F-6.9°C 16% Calm Calm -- 29.91 in1012.9 mb - 0.00 in0.0 mm 0.00 in0.0 mm
06:50 PM 66.6°F19.2°C 18.9°F-7.3°C 16% Calm Calm -- 29.91 in1012.9 mb - 0.00 in0.0 mm 0.00 in0.0 mm
07:00 PM 65.8°F18.8°C 19.7°F-6.8°C 17% Calm Calm -- 29.92 in1013.2 mb - 0.00 in0.0 mm 0.00 in0.0 mm
07:10 PM 65.3°F18.5°C 19.4°F-7.0°C 17% Calm Calm -- 29.91 in1012.9 mb - 0.00 in0.0 mm 0.00 in0.0 mm
07:20 PM 65.0°F18.3°C 19.1°F-7.2°C 17% Calm Calm -- 29.92 in1013.2 mb - 0.00 in0.0 mm 0.00 in0.0 mm
07:30 PM 64.6°F18.1°C 20.1°F-6.6°C 18% Calm Calm -- 29.91 in1012.9 mb - 0.00 in0.0 mm 0.00 in0.0 mm
07:40 PM 64.1°F17.8°C 19.7°F-6.8°C 18% Calm Calm -- 29.91 in1012.9 mb - 0.00 in0.0 mm 0.00 in0.0 mm
07:50 PM 63.6°F17.6°C 20.5°F-6.4°C 19% Calm Calm -- 29.92 in1013.2 mb - 0.00 in0.0 mm 0.00 in0.0 mm
08:00 PM 62.7°F17.1°C 21.0°F-6.1°C 20% Calm Calm -- 29.92 in1013.2 mb - 0.00 in0.0 mm 0.00 in0.0 mm
08:10 PM 61.6°F16.4°C 20.1°F-6.6°C 20% Calm Calm -- 29.92 in1013.2 mb - 0.00 in0.0 mm 0.00 in0.0 mm
08:20 PM 61.0°F16.1°C 20.7°F-6.3°C 21% Calm Calm -- 29.92 in1013.2 mb - 0.00 in0.0 mm 0.00 in0.0 mm
08:30 PM 60.4°F15.8°C 21.3°F-5.9°C 22% Calm Calm -- 29.93 in1013.5 mb - 0.00 in0.0 mm 0.00 in0.0 mm
08:40 PM 59.3°F15.2°C 20.4°F-6.4°C 22% Calm Calm -- 29.93 in1013.5 mb - 0.00 in0.0 mm 0.00 in0.0 mm
08:50 PM 58.7°F14.8°C 21.0°F-6.1°C 23% Calm Calm -- 29.93 in1013.5 mb - 0.00 in0.0 mm 0.00 in0.0 mm
09:00 PM 58.8°F14.9°C 21.0°F-6.1°C 23% Calm Calm -- 29.93 in1013.5 mb - 0.00 in0.0 mm 0.00 in0.0 mm
09:10 PM 58.8°F14.9°C 20.0°F-6.7°C 22% Calm Calm -- 29.93 in1013.5 mb - 0.00 in0.0 mm 0.00 in0.0 mm
09:20 PM 58.7°F14.8°C 19.9°F-6.7°C 22% Calm Calm 1.2 mph1.9 kmh 29.93 in1013.5 mb - 0.00 in0.0 mm 0.00 in0.0 mm
09:30 PM 58.5°F14.7°C 19.7°F-6.8°C 22% Calm Calm 1.2 mph1.9 kmh 29.93 in1013.5 mb - 0.00 in0.0 mm 0.00 in0.0 mm
09:40 PM 58.2°F14.6°C 19.5°F-6.9°C 22% Calm Calm -- 29.93 in1013.5 mb - 0.00 in0.0 mm 0.00 in0.0 mm
09:50 PM 57.7°F14.3°C 20.1°F-6.6°C 23% Calm Calm -- 29.93 in1013.5 mb - 0.00 in0.0 mm 0.00 in0.0 mm
10:00 PM 56.9°F13.8°C 20.4°F-6.4°C 24% Calm Calm -- 29.93 in1013.5 mb - 0.00 in0.0 mm 0.00 in0.0 mm
10:10 PM 56.3°F13.5°C 20.9°F-6.2°C 25% Calm Calm -- 29.93 in1013.5 mb - 0.00 in0.0 mm 0.00 in0.0 mm
10:20 PM 55.6°F13.1°C 21.2°F-6.0°C 26% Calm Calm -- 29.93 in1013.5 mb - 0.00 in0.0 mm 0.00 in0.0 mm
10:30 PM 54.4°F12.4°C 20.2°F-6.6°C 26% Calm Calm -- 29.93 in1013.5 mb - 0.00 in0.0 mm 0.00 in0.0 mm
10:40 PM 53.7°F12.1°C 20.5°F-6.4°C 27% Calm Calm -- 29.93 in1013.5 mb - 0.00 in0.0 mm 0.00 in0.0 mm
10:50 PM 53.1°F11.7°C 20.8°F-6.2°C 28% Calm Calm -- 29.93 in1013.5 mb - 0.00 in0.0 mm 0.00 in0.0 mm
11:00 PM 52.4°F11.3°C 20.2°F-6.6°C 28% Calm Calm -- 29.93 in1013.5 mb - 0.00 in0.0 mm 0.00 in0.0 mm
11:10 PM 51.8°F11.0°C 21.3°F-5.9°C 30% Calm Calm -- 29.93 in1013.5 mb - 0.00 in0.0 mm 0.00 in0.0 mm
11:20 PM 51.0°F10.6°C 21.4°F-5.9°C 31% Calm Calm -- 29.93 in1013.5 mb - 0.00 in0.0 mm 0.00 in0.0 mm
11:30 PM 50.4°F10.2°C 20.9°F-6.2°C 31% Calm Calm -- 29.93 in1013.5 mb - 0.00 in0.0 mm 0.00 in0.0 mm
11:40 PM 49.9°F9.9°C 20.4°F-6.4°C 31% Calm Calm -- 29.93 in1013.5 mb - 0.00 in0.0 mm 0.00 in0.0 mm
11:50 PM 50.0°F10.0°C 19.7°F-6.8°C 30% Calm Calm 1.2 mph1.9 kmh 29.93 in1013.5 mb - 0.00 in0.0 mm 0.00 in0.0 mm